Tiempo atmosférico en la estación meteorológica de Carrión De Los Condes, Palencia (830 m.)



Fecha
DESCASC
Temp. máxima en grados centígrados (hora)
DESCASC
Temp. mínima en grados centígrados (hora)
DESCASC
Temp. media en grados centígrados
DESCASC
Racha de viento máxima en m/sg (hora)
DESCASC
Velocidad máxima media en intervalos de 10 minutos(hora)
DESCASC
Precipitaciones diarias en mm
DESCASC
Precipitaciones de 00:00 a 06:00 en mm
DESCASC
Precipitaciones de 06:00 a 12:00 en mm
DESCASC
Precipitaciones de 12:00 a 18:00 en mm
DESCASC
Precipitaciones de 18:00 a 24:00 en mm
DESCASC
16-06-2019 27.3 (17:10) 6.8 (06:50) 17 16.11 (08:20) 3.89 (23:10) 0 0 0 0 0
15-06-2019 22.7 (18:50) 7.5 (07:00) 15.1 8.06 (22:00) 3.33 (22:10) 0 0 0 0 0
14-06-2019 24.1 (16:40) 5.8 (07:10) 15 10.56 (16:50) 4.17 (16:50) 0 0 0 0 0
13-06-2019 23.7 (17:20) 5.9 (00:00) 14.8 11.94 (17:50) 5 (17:50) 0 0 0 0 0
12-06-2019 20.2 (19:00) 1 (00:00) 10.6 7.78 (22:20) 3.61 (23:10) 0 0 0 0 0
11-06-2019 17.2 (16:00) 5.7 (00:00) 11.5 10.56 (16:20) 5.28 (20:00) 0 0 0 0 0
10-06-2019 20 (18:40) 4.8 (00:00) 12.4 10.28 (20:20) 4.72 (20:00) 0 0 0 0 0
09-06-2019 23.5 (16:40) 8 (00:00) 15.8 11.67 (19:50) 5.56 (19:40) 3 0 0 0 3
08-06-2019 23.4 (17:00) 5.1 (00:00) 14.2 11.67 (23:59) 4.44 (23:59) 0 0 0 0 0
07-06-2019 18.2 (17:50) 6 (00:00) 12.1 11.67 (02:50) 5.28 (05:30) 0 0 0 0 0
06-06-2019 21.4 (17:10) 2.4 (00:00) 11.9 18.33 (19:00) 7.78 (19:00) 5.6 0 0 0 5.6
05-06-2019 19.2 (17:30) 8.2 (00:00) 13.7 9.44 (17:30) 2.5 (02:20) 3.8 3.4 0.4 0 0
04-06-2019 22.7 (15:50) 11.5 (00:00) 17.1 12.22 (16:50) 5 (16:00) 0.4 0 0 0 0.4
03-06-2019 30 (17:10) 10.4 (00:00) 20.2 11.39 (18:30) 5 (19:00) 0 0 0 0 0
02-06-2019 30.8 (15:00) 10.8 (00:00) 20.8 12.22 (16:10) 4.17 (15:50) 0 0 0 0 0
01-06-2019 32.9 (17:20) 9.5 (00:00) 21.2 6.67 (18:00) 2.78 (23:10) 0 0 0 0 0
31-05-2019 30.6 (17:40) 7.7 (00:00) 19.2 6.39 (13:10) 2.78 (15:40) 0 0 0 0 0
30-05-2019 28.1 (17:30) 6.1 (00:00) 17.1 8.06 (20:30) 3.61 (21:10) 0 0 0 0 0
29-05-2019 22.7 (17:40) 2.9 (00:00) 12.8 9.44 (17:10) 3.33 (19:20) 0 0 0 0 0
28-05-2019 21.4 (16:30) 4.2 (00:00) 12.8 10.28 (17:20) 4.44 (17:20) 0 0 0 0 0
27-05-2019 24.8 (16:30) 5.6 (00:00) 15.2 8.89 (20:10) 3.61 (18:40) 0 0 0 0 0
26-05-2019 24.3 (17:40) 3.6 (00:00) 13.9 7.78 (19:40) 3.33 (19:30) 0 0 0 0 0
25-05-2019 18.9 (15:20) 3.5 (00:00) 11.2 11.11 (14:50) 3.89 (14:50) 0 0 0 0 0
24-05-2019 18.8 (15:40) 8.3 (00:00) 13.5 12.22 (16:30) 5.56 (19:10) 0 0 0 0 0
23-05-2019 25.2 (16:30) 7.9 (00:00) 16.6 12.22 (21:00) 5.28 (21:00) 0 0 0 0 0
22-05-2019 25.6 (17:50) 6.4 (00:00) 16 6.11 (14:20) 2.78 (01:30) 0 0 0 0 0

Gráficas

Temp. máximas Temp. mínimas Temp. medias Precipitaciones Rachas de viento máximas Velocidades máximas media en intervalos de 10 minutos

Datos horarios

Fecha y hora oficial Temperatura (ºC) Velocidad del viento (km/h) Dirección del viento Racha (km/h) Dirección de racha Precipitación (mm) Presión (hPa) Tendencia (hPa) Humedad (%)
2019-06-20 23:00:00 12.4 13 Norte 28 Norte 4.4 923.3 2.5 96
2019-06-20 22:00:00 13 8 Este 36 Nordeste 1.2 923.2 3 93
2019-06-20 21:00:00 13.9 15 Norte 35 Nordeste 0.2 921.4 1.3 84
2019-06-20 20:00:00 15.8 17 Nordeste 45 Nordeste 0 920.8 0.8 71
2019-06-20 19:00:00 17.2 19 Nordeste 44 Norte 0.2 920.2 -0.6 67
2019-06-20 18:00:00 21 9 Sudeste 21 Sudeste 0 920.1 -1.4 47
2019-06-20 17:00:00 22.9 8 Nordeste 18 Nordeste 0 920 -2.1 38
2019-06-20 16:00:00 22.2 5 Norte 25 Norte 0 920.8 -1.4 42
2019-06-20 15:00:00 21.2 9 Este 24 Sudeste 0 921.5 -0.9 47
2019-06-20 14:00:00 20 8 Nordeste 25 Nordeste 0 922.1 -0.1 53
2019-06-20 13:00:00 19.1 10 Nordeste 28 Nordeste 0 922.2 -0.1 54
2019-06-20 12:00:00 18.2 11 Este 29 Sudeste 0 922.4 -0.1 59
2019-06-20 11:00:00 17.8 8 Este 28 Nordeste 0 922.2 -0.3 61
2019-06-20 10:00:00 17.1 11 Nordeste 29 Nordeste 0 922.3 0 64
2019-06-20 09:00:00 14.6 9 Nordeste 21 Nordeste 0 922.5 0.3 75
2019-06-20 08:00:00 12.8 6 Nordeste 16 Nordeste 0 922.5 0.2 85
2019-06-20 07:00:00 11.6 6 Nordeste 16 Nordeste 0 922.3 -0.1 93
2019-06-20 06:00:00 10.9 6 Nordeste 15 Nordeste 0 922.2 -0.3 94
2019-06-20 05:00:00 10.9 6 Nordeste 14 Este 0 922.3 -0.4 94
2019-06-20 04:00:00 10.8 5 Nordeste 18 Nordeste 0 922.4 -0.1 93
2019-06-20 03:00:00 11.4 7 Nordeste 15 Nordeste 0 922.5 0.5 87
2019-06-20 02:00:00 11.8 5 Nordeste 20 Este 0 922.7 1.1 84
2019-06-20 01:00:00 12.8 7 Nordeste 18 Nordeste 0 922.5 1.3 81
2019-06-20 00:00:00 13.4 0 Calma 4 Norte 0 922 1.2 71
2019-06-19 23:00:00 15.8 0 Calma 11 Oeste 0 921.6 1.1 61
2019-06-19 22:00:00 18.6 0 Calma 25 Sur 0 921.2 0.7 50
2019-06-19 21:00:00 20.4 10 Sudoeste 30 Sudoeste 0 920.8 0.2 45
2019-06-19 20:00:00 21.4 6 Sudoeste 27 Sudoeste 0 920.5 -0.1 41
2019-06-19 19:00:00 23.2 8 Sudoeste 38 Sudoeste 0 920.5 -0.4 39
2019-06-19 18:00:00 22.7 8 Sudoeste 32 Sudoeste 0 920.6 -0.6 42
2019-06-19 17:00:00 23.7 10 Sudoeste 32 Sudoeste 0 920.6 -0.7 38
2019-06-19 16:00:00 21.8 13 Sudoeste 32 Sudoeste 0 920.9 -0.8 45
2019-06-19 15:00:00 21.8 13 Sudoeste 33 Sur 0 921.2 -0.2 48
2019-06-19 14:00:00 21.7 11 Sudoeste 38 Sudoeste 0 921.3 0 48
2019-06-19 13:00:00 19.5 14 Sudoeste 30 Sudoeste 0 921.7 0.5 57
2019-06-19 12:00:00 18.9 14 Sudoeste 29 Sudoeste 0 921.4 0.3 59
2019-06-19 11:00:00 18.3 8 Sudoeste 34 Sudoeste 0 921.3 0.6 60
2019-06-19 10:00:00 17.4 11 Sudoeste 26 Sur 0 921.2 0.6 68
2019-06-19 09:00:00 15.8 13 Sudoeste 29 Sur 0 921.1 0.5 77
2019-06-19 08:00:00 14 10 Sudoeste 26 Sudoeste 0 920.7 0.5 84
2019-06-19 07:00:00 13.6 12 Sudoeste 26 Sudoeste 0 920.6 0.5 85
2019-06-19 06:00:00 13 4 Sudoeste 13 Sudoeste 0 920.6 0.4 89
2019-06-19 05:00:00 13 5 Sudoeste 18 Sudoeste 0 920.2 -0.2 85
2019-06-19 04:00:00 13.6 6 Sudoeste 18 Sudoeste 0 920.1 -0.4 82
2019-06-19 03:00:00 14 5 Sudoeste 23 Sudoeste 0 920.2 -0.3 79
2019-06-19 02:00:00 15.3 4 Sudoeste 13 Sudoeste 0 920.4 0.2 73
2019-06-19 01:00:00 15.8 3 Oeste 17 Sudoeste 0 920.5 1.1 71
2019-06-19 00:00:00 16.8 3 Sudoeste 18 Sudoeste 0 920.5 1.2 67
2019-06-18 23:00:00 17.5 4 Oeste 24 Oeste 0 920.2 1.2 62
2019-06-18 22:00:00 19 5 Noroeste 23 Sudoeste 0 919.4 0.7 54
2019-06-18 21:00:00 20.7 10 Sudoeste 50 Sur 0 919.3 0.9 42
2019-06-18 20:00:00 22.7 13 Sudoeste 53 Sudoeste 0 919 0.7 35
2019-06-18 19:00:00 24 14 Sudoeste 47 Oeste 0 918.7 0.5 37
2019-06-18 18:00:00 25.8 10 Sudoeste 47 Sur 0 918.4 0 30
2019-06-18 17:00:00 26.1 17 Sudoeste 55 Sudoeste 0 918.3 -0.5 28
2019-06-18 16:00:00 27.7 18 Sudoeste 67 Sudoeste 0 918.2 -0.7 20
2019-06-18 15:00:00 26.7 22 Sudoeste 58 Sur 0 918.4 -0.9 20
2019-06-18 14:00:00 26.6 24 Sudoeste 52 Sudoeste 0 918.8 -0.6 12
2019-06-18 13:00:00 26 19 Sudoeste 45 Sudoeste 0 918.9 -0.7 16
2019-06-18 12:00:00 24.5 17 Sudoeste 42 Sudoeste 0 919.3 -0.4 21
2019-06-18 11:00:00 23 17 Sudoeste 38 Sudoeste 0 919.4 0.1 27
2019-06-18 10:00:00 21 7 Sudoeste 24 Sudoeste 0 919.6 0.5 33
2019-06-18 09:00:00 18 3 Sur 10 Sur 0 919.7 0.5 43
2019-06-18 08:00:00 12.8 0 Calma 6 Norte 0 919.3 0.2 65
2019-06-18 07:00:00 9.8 4 Norte 6 Noroeste 0 919.1 -0.1 71
2019-06-18 06:00:00 9.7 0 Calma 3 Norte 0 919.2 -0.5 74
2019-06-18 05:00:00 11.7 0 Calma 14 Nordeste 0 919.1 -1.9 65
2019-06-18 04:00:00 13.6 2 Norte 21 Este 0 919.2 -2.3 53
2019-06-18 03:00:00 16.2 4 Nordeste 14 Norte 0 919.7 -1.5 42
2019-06-18 02:00:00 16.3 5 Norte 10 Sudoeste 0 921 -0.5 47
2019-06-18 01:00:00 18.8 0 Calma 21 Sudoeste 0 921.5 0.6 36
2019-06-18 00:00:00 20.4 11 Noroeste 30 Norte 0 921.2 0.6 28
2019-06-17 23:00:00 19.7 2 Sur 23 Noroeste 0 921.5 1.2 32
2019-06-17 22:00:00 20.6 2 Sur 20 Noroeste 0 920.9 0.9 29
2019-06-17 21:00:00 21.6 0 Calma 11 Noroeste 0 920.6 0.1 29
2019-06-17 20:00:00 23.9 3 Este 21 Oeste 0 920.3 -0.6 25
2019-06-17 19:00:00 25.8 5 Sudoeste 33 Sudoeste 0 920 -1.1 16
2019-06-17 18:00:00 26.8 11 Sudoeste 33 Sudoeste 0 920.5 -1.1 17
2019-06-17 17:00:00 28.6 13 Sudoeste 37 Sur 0 920.9 -1.4 19
2019-06-17 16:00:00 28.5 8 Sudoeste 33 Sur 0 921.1 -1.7 20
2019-06-17 15:00:00 27.7 10 Sudoeste 33 Sudoeste 0 921.6 -1.7 21
2019-06-17 14:00:00 27.6 11 Sur 31 Sudoeste 0 922.3 -1.1 21
2019-06-17 13:00:00 26.3 10 Sudoeste 28 Sur 0 922.8 -0.8 24
2019-06-17 12:00:00 24.5 9 Sudoeste 21 Sur 0 923.3 -0.2 31
2019-06-17 11:00:00 21.4 2 Sudoeste 11 Sur 0 923.4 -0.1 50
2019-06-17 10:00:00 18.9 4 Este 13 Nordeste 0 923.6 0.5 58
2019-06-17 09:00:00 15.7 4 Este 12 Este 0 923.5 0.3 72
2019-06-17 08:00:00 12.1 0 Calma 10 Sudoeste 0 923.5 0.4 93
2019-06-17 07:00:00 8.9 3 Nordeste 7 Nordeste 0 923.1 -0.6 95
2019-06-17 06:00:00 9 0 Calma 12 Norte 0 923.2 -0.4 93
2019-06-17 05:00:00 10 4 Nordeste 9 Nordeste 0 923.1 -0.6 94
2019-06-17 04:00:00 10.9 0 Calma 4 Oeste 0 923.7 -0.1 84
2019-06-17 03:00:00 12.9 0 Calma 10 Nordeste 0 923.6 -0.2 79
2019-06-17 02:00:00 14.8 5 Nordeste 18 Nordeste 0 923.7 0.2 75
2019-06-17 01:00:00 15.3 8 Nordeste 23 Nordeste 0 923.8 0.9 74
2019-06-17 00:00:00 16 10 Nordeste 26 Nordeste 0 923.8 1.2 72
2019-06-16 23:00:00 15.9 7 Norte 20 Norte 0 923.5 1 46
2019-06-16 22:00:00 18.4 2 Norte 9 Oeste 0 922.9 0.5 47
2019-06-16 21:00:00 22.1 3 Oeste 11 Sur 0 922.6 -0.1 32
2019-06-16 20:00:00 24.2 2 Sur 12 Noroeste 0 922.5 -0.5 28
2019-06-16 19:00:00 25.9 4 Oeste 19 Sudoeste 0 922.4 -1.2 18
2019-06-16 18:00:00 26.7 6 Sudeste 24 Sudoeste 0 922.7 -1.5 15
2019-06-16 17:00:00 27 5 Sur 17 Sudoeste 0 923 -1.6 20
2019-06-16 16:00:00 26 5 Sudoeste 24 Sur 0 923.6 -1.4 20
2019-06-16 15:00:00 25.4 8 Sudoeste 24 Sudoeste 0 924.2 -1.3 23
2019-06-16 14:00:00 24.6 10 Sudoeste 21 Sudoeste 0 924.6 -1.4 24
2019-06-16 13:00:00 22.9 5 Norte 16 Sudoeste 0 925 -1 29
2019-06-16 12:00:00 21.5 3 Este 19 Sudeste 0 925.5 -0.5 36
2019-06-16 11:00:00 19.5 6 Sudeste 17 Sudeste 0 926 0.2 43
2019-06-16 10:00:00 16.4 5 Este 17 Nordeste 0 926 0.3 53
2019-06-16 09:00:00 12.9 8 Nordeste 58 Sudoeste 0 926 0.4 66
2019-06-16 08:00:00 9.5 5 Norte 13 Nordeste 0 925.8 -0.1 78
2019-06-16 07:00:00 7 6 Nordeste 13 Nordeste 0 925.7 -0.6 85
2019-06-16 06:00:00 7.1 5 Nordeste 16 Nordeste 0 925.6 -0.9 84
2019-06-16 05:00:00 7.7 6 Nordeste 17 Nordeste 0 925.9 -0.8 84
2019-06-16 04:00:00 8 5 Nordeste 17 Nordeste 0 926.3 -0.5 83
2019-06-16 03:00:00 8.5 5 Norte 21 Nordeste 0 926.5 0 83
2019-06-16 02:00:00 9 9 Nordeste 21 Nordeste 0 926.7 0.3 82
2019-06-16 01:00:00 9.6 9 Nordeste 26 Nordeste 0 926.8 1.4 80
2019-06-16 00:00:00 10.6 12 Nordeste 27 Nordeste 0 926.5 1.6 76
2019-06-15 23:00:00 12.5 11 Nordeste 28 Nordeste 0 926.4 1.7 68
2019-06-15 22:00:00 15.4 7 Norte 29 Nordeste 0 925.4 0.8 55
2019-06-15 21:00:00 18 3 Norte 13 Noroeste 0 924.9 0.1 35
2019-06-15 20:00:00 21 5 Noroeste 14 Noroeste 0 924.7 -0.3 25
2019-06-15 19:00:00 22.3 7 Noroeste 15 Norte 0 924.6 -0.7 25
2019-06-15 18:00:00 22.1 4 Sudoeste 18 Noroeste 0 924.8 -0.8 25
2019-06-15 17:00:00 22.1 6 Sudoeste 19 Este 0 925 -0.8 25
2019-06-15 16:00:00 20.2 7 Este 18 Noroeste 0 925.3 -0.5 31
2019-06-15 15:00:00 20.2 6 Sur 17 Sudoeste 0 925.6 -0.2 32
2019-06-15 14:00:00 19 4 Sudoeste 17 Sudeste 0 925.8 0.2 38
2019-06-15 13:00:00 19 6 Sur 13 Sudoeste 0 925.8 0.1 38
2019-06-15 12:00:00 15.7 3 Norte 15 Sudeste 0 925.8 0.6 50
2019-06-15 11:00:00 15.9 8 Este 16 Sudeste 0 925.6 1 52
2019-06-15 10:00:00 13.3 4 Sudeste 17 Este 0 925.7 1.3 63
2019-06-15 09:00:00 12.2 7 Este 19 Este 0 925.2 1.4 65
2019-06-15 08:00:00 8.8 3 Este 10 Este 0 924.6 1.1 82
2019-06-15 07:00:00 7.6 5 Norte 13 Nordeste 0 924.4 1.1 84
2019-06-15 06:00:00 8.5 5 Nordeste 18 Este 0 923.8 0.7 80
2019-06-15 05:00:00 9.6 6 Este 19 Este 0 923.5 0.7 74
2019-06-15 04:00:00 9.1 6 Nordeste 18 Este 0 923.3 0.7 73
2019-06-15 03:00:00 9 3 Nordeste 13 Este 0 923.1 1.3 75
2019-06-15 02:00:00 9.9 5 Este 17 Nordeste 0 922.8 1.7 72
2019-06-15 01:00:00 11.4 8 Nordeste 23 Nordeste 0 922.6 2.6 69
2019-06-15 00:00:00 14.2 3 Norte 33 Sudoeste 0 921.8 2.7 50
2019-06-14 23:00:00 15 9 Sudoeste 29 Sudoeste 0 921.1 2.9 39
2019-06-14 22:00:00 16.5 9 Sudoeste 26 Oeste 0 920 2.5 32
2019-06-14 21:00:00 18.1 11 Sudoeste 34 Sur 0 919.1 1.7 30
2019-06-14 20:00:00 20.4 12 Sudoeste 33 Sudoeste 0 918.2 1 27
2019-06-14 19:00:00 22.7 6 Sudoeste 30 Oeste 0 917.5 0.3 23
2019-06-14 18:00:00 22.7 12 Sudoeste 32 Sudoeste 0 917.4 0.1 22
2019-06-14 17:00:00 23.6 12 Sudoeste 38 Sur 0 917.2 -0.3 21
2019-06-14 16:00:00 23.4 10 Sudoeste 28 Sudoeste 0 917.2 -0.6 20
2019-06-14 15:00:00 22.6 10 Sudoeste 28 Sudoeste 0 917.3 -0.6 24
2019-06-14 14:00:00 22.2 8 Sur 24 Sur 0 917.5 -0.7 30
2019-06-14 13:00:00 20.2 6 Sur 17 Sur 0 917.8 -0.5 36
2019-06-14 12:00:00 18.4 5 Sur 15 Sudeste 0 917.9 -0.2 46
2019-06-14 11:00:00 16.2 6 Este 14 Sudeste 0 918.2 0.3 57
2019-06-14 10:00:00 12.1 7 Nordeste 19 Norte 0 918.3 0.2 75
2019-06-14 09:00:00 9.2 9 Nordeste 24 Nordeste 0 918.1 0.2 90
2019-06-14 08:00:00 7.5 4 Nordeste 11 Norte 0 917.9 -0.3 96
2019-06-14 07:00:00 5.9 4 Nordeste 14 Norte 0 918.1 0 94
2019-06-14 06:00:00 6.4 5 Norte 13 Nordeste 0 917.9 -0.4 95
2019-06-14 05:00:00 6.8 4 Nordeste 15 Nordeste 0 918.2 -0.3 94
2019-06-14 04:00:00 7 7 Nordeste 18 Nordeste 0 918.1 -0.7 94
2019-06-14 03:00:00 7.3 9 Nordeste 18 Nordeste 0 918.3 -0.5 91
2019-06-14 02:00:00 7.8 6 Nordeste 22 Nordeste 0 918.5 0.2 85
2019-06-14 01:00:00 8.4 7 Nordeste 24 Nordeste 0 918.8 2.2 82
2019-06-14 00:00:00 9.4 11 Nordeste 25 Nordeste 0 918.8 2.9 78
2019-06-13 23:00:00 11.6 11 Nordeste 27 Nordeste 0 918.3 3 67
2019-06-13 22:00:00 16 2 Nordeste 11 Sudoeste 0 916.6 1.5 38
2019-06-13 21:00:00 19.2 4 Sudoeste 22 Sudoeste 0 915.9 0.5 23
2019-06-13 20:00:00 21.5 4 Sudoeste 30 Oeste 0 915.3 -0.1 20
2019-06-13 19:00:00 23 13 Sudoeste 33 Sur 0 915.1 -0.3 18
2019-06-13 18:00:00 23.3 14 Sudoeste 43 Sudoeste 0 915.4 -0.3 17
2019-06-13 17:00:00 23.1 9 Sudoeste 42 Sur 0 915.4 -0.8 19
2019-06-13 16:00:00 23.4 14 Sudoeste 37 Sudoeste 0 915.4 -0.9 19
2019-06-13 15:00:00 22.5 12 Sudoeste 34 Sudoeste 0 915.7 -1 24
2019-06-13 14:00:00 21 14 Sudoeste 36 Sudoeste 0 916.2 -0.4 24
2019-06-13 13:00:00 19.7 8 Sur 19 Sudoeste 0 916.3 -0.5 35
2019-06-13 12:00:00 17.8 5 Sur 18 Sudeste 0 916.7 0 40
2019-06-13 11:00:00 15.8 4 Este 18 Este 0 916.6 0 51
2019-06-13 10:00:00 13.2 8 Este 30 Este 0 916.8 0.3 61
2019-06-13 09:00:00 10.7 9 Nordeste 26 Nordeste 0 916.7 0.2 71
2019-06-13 08:00:00 7.9 8 Nordeste 18 Nordeste 0 916.6 0.1 82
2019-06-13 07:00:00 5.9 6 Nordeste 16 Nordeste 0 916.5 -0.1 91
2019-06-13 06:00:00 6.1 6 Nordeste 18 Norte 0 916.5 -0.5 86
2019-06-13 05:00:00 6.2 5 Nordeste 16 Nordeste 0 916.5 -0.9 85
2019-06-13 04:00:00 6.4 6 Norte 18 Nordeste 0 916.6 -1.2 84
2019-06-13 03:00:00 6.5 7 Nordeste 21 Nordeste 0 917 -1 83
2019-06-13 02:00:00 7 9 Nordeste 26 Nordeste 0 917.4 -0.7 85
2019-06-13 01:00:00 7.5 11 Nordeste 24 Nordeste 0 917.8 0.4 82
2019-06-13 00:00:00 8.4 10 Nordeste 28 Nordeste 0 918 0.6 78
2019-06-12 23:00:00 9.8 12 Nordeste 28 Nordeste 0 918.1 0.8 73
2019-06-12 22:00:00 12.3 0 Calma 4 Nordeste 0 917.4 -0.1 49
2019-06-12 21:00:00 15.4 2 Oeste 15 Noroeste 0 917.4 -0.5 29
2019-06-12 20:00:00 18.5 5 Oeste 19 Este 0 917.3 -1 22
2019-06-12 19:00:00 19 5 Nordeste 17 Sudoeste 0 917.5 -1.2 20
2019-06-12 18:00:00 19.2 4 Noroeste 21 Sudoeste 0 917.9 -1.4 21
2019-06-12 17:00:00 19.7 9 Sur 28 Sur 0 918.3 -1.5 21
2019-06-12 16:00:00 18.1 5 Noroeste 22 Sudoeste 0 918.7 -1.5 23
2019-06-12 15:00:00 17.9 6 Oeste 28 Sudoeste 0 919.3 -1.3 29
2019-06-12 14:00:00 16.5 8 Sudoeste 26 Sur 0 919.8 -0.8 28
2019-06-12 13:00:00 15.8 9 Oeste 25 Sudoeste 0 920.2 -0.5 28
2019-06-12 12:00:00 14.2 4 Oeste 27 Noroeste 0 920.6 0 37
2019-06-12 11:00:00 12 10 Noroeste 25 Noroeste 0 920.6 0 44
2019-06-12 10:00:00 11.5 4 Noroeste 19 Norte 0 920.7 0.2 48
2019-06-12 09:00:00 9.1 4 Noroeste 13 Oeste 0 920.6 0.2 56
2019-06-12 08:00:00 4.4 0 Calma 4 Sudoeste 0 920.6 0 87
2019-06-12 07:00:00 1.1 0 Calma 5 Nordeste 0 920.5 -0.4 96
2019-06-12 06:00:00 1.3 0 Calma 6 Sudeste 0 920.4 -0.7 96
2019-06-12 05:00:00 1.9 2 Sudoeste 6 Sur 0 920.6 -0.9 96
2019-06-12 04:00:00 2.5 0 Calma 6 Sudoeste 0 920.9 -0.9 96
2019-06-12 03:00:00 2.6 0 Calma 4 Noroeste 0 921.1 -0.9 94
2019-06-12 02:00:00 3.5 0 Calma 5 Oeste 0 921.5 -0.8 86
2019-06-12 01:00:00 4.3 0 Calma 4 Nordeste 0 921.8 -0.2 82
2019-06-12 00:00:00 6.3 0 Calma 13 Noroeste 0 922 0.2 74
2019-06-11 23:00:00 8.6 7 Noroeste 18 Noroeste 0 922.3 0.8 61
2019-06-11 22:00:00 10.5 9 Noroeste 27 Noroeste 0 922 1 51
2019-06-11 21:00:00 12 13 Noroeste 33 Noroeste 0 921.8 0.8 42
2019-06-11 20:00:00 13.4 19 Noroeste 35 Noroeste 0 921.5 0.3 42
2019-06-11 19:00:00 16.4 12 Noroeste 31 Sudoeste 0 921 -0.1 33
2019-06-11 18:00:00 16.6 13 Noroeste 27 Noroeste 0 921 -0.2 35
2019-06-11 17:00:00 16.2 13 Noroeste 38 Noroeste 0 921.2 -0.1 33
2019-06-11 16:00:00 17 12 Norte 29 Noroeste 0 921.1 -0.4 31
2019-06-11 15:00:00 16 9 Noroeste 32 Noroeste 0 921.2 -0.2 31
2019-06-11 14:00:00 14.6 6 Noroeste 21 Noroeste 0 921.3 0 38
2019-06-11 13:00:00 13.2 8 Este 26 Nordeste 0 921.5 0.3 55
2019-06-11 12:00:00 13.2 4 Nordeste 16 Noroeste 0 921.4 0.3 43
2019-06-11 11:00:00 11.3 4 Nordeste 19 Norte 0 921.3 0.3 52
2019-06-11 10:00:00 10.4 6 Norte 19 Norte 0 921.2 0.3 67
2019-06-11 09:00:00 9 3 Noroeste 11 Sudoeste 0 921.1 0.6 75
2019-06-11 08:00:00 6.6 2 Oeste 5 Noroeste 0 921 0.3 96
2019-06-11 07:00:00 5.7 3 Noroeste 5 Noroeste 0 920.9 -0.1 96
2019-06-11 06:00:00 6.3 2 Noroeste 6 Noroeste 0 920.5 -0.7 95
2019-06-11 05:00:00 7 2 Noroeste 6 Norte 0 920.7 -0.8 93
2019-06-11 04:00:00 7.4 3 Nordeste 12 Nordeste 0 921 -1 89
2019-06-11 03:00:00 7.7 4 Nordeste 13 Nordeste 0 921.2 -0.9 86
2019-06-11 02:00:00 7.8 4 Nordeste 14 Nordeste 0 921.5 -0.4 86
2019-06-11 01:00:00 8.3 7 Nordeste 24 Nordeste 0 922 0.9 78
2019-06-11 00:00:00 8.7 10 Norte 21 Norte 0 922.1 1 75
2019-06-10 23:00:00 9.4 10 Nordeste 28 Nordeste 0 921.9 0.8 76
2019-06-10 22:00:00 10.2 12 Nordeste 31 Nordeste 0 921.1 0.4 72
2019-06-10 21:00:00 11.2 15 Nordeste 37 Nordeste 0 921.1 -0.4 70
2019-06-10 20:00:00 13.6 17 Nordeste 36 Nordeste 0 921.1 -1.1 62
2019-06-10 19:00:00 18.6 3 Oeste 14 Sudoeste 0 920.7 -2.2 33
2019-06-10 18:00:00 18.3 2 Noroeste 16 Sudoeste 0 921.5 -2 32
2019-06-10 17:00:00 17.5 4 Noroeste 18 Sudeste 0 922.2 -2 36
2019-06-10 16:00:00 18.1 7 Sudoeste 21 Sur 0 922.9 -1.8 37
2019-06-10 15:00:00 16.5 4 Este 15 Sudeste 0 923.5 -1.5 46
2019-06-10 14:00:00 16.1 5 Sudeste 12 Sur 0 924.2 -1 53
2019-06-10 13:00:00 14.1 5 Sur 13 Nordeste 0 924.7 -0.7 55
2019-06-10 12:00:00 12.4 2 Oeste 12 Sudeste 0 925 -0.2 61
2019-06-10 11:00:00 10.7 5 Norte 14 Norte 0 925.2 0.1 72
2019-06-10 10:00:00 10.8 5 Nordeste 18 Nordeste 0 925.4 0.4 72
2019-06-10 09:00:00 8.9 6 Norte 15 Noroeste 0 925.2 0.4 84
2019-06-10 08:00:00 6.7 4 Noroeste 7 Norte 0 925.1 0 98
2019-06-10 07:00:00 5 2 Noroeste 5 Noroeste 0 925 -0.1 97
2019-06-10 06:00:00 5.8 3 Noroeste 8 Norte 0 924.8 -0.9 97
2019-06-10 05:00:00 6.3 4 Noroeste 9 Norte 0 925.1 -0.8 97
2019-06-10 04:00:00 7 3 Norte 8 Norte 0 925.1 -0.9 97
2019-06-10 03:00:00 7.3 3 Norte 8 Norte 0 925.7 0.2 96
2019-06-10 02:00:00 7.8 2 Nordeste 18 Nordeste 0 925.9 0.8 94
2019-06-10 01:00:00 8.4 5 Nordeste 15 Nordeste 0 926 1.2 93
2019-06-10 00:00:00 9.3 6 Nordeste 27 Nordeste 0 925.5 1.4 92
2019-06-09 23:00:00 9.7 11 Nordeste 29 Nordeste 0.4 925.1 2.2 93
2019-06-09 22:00:00 10.1 10 Nordeste 34 Nordeste 1 924.8 3 91
2019-06-09 21:00:00 10.6 14 Nordeste 38 Nordeste 1.6 924.1 2.8 82
2019-06-09 20:00:00 13.8 18 Nordeste 42 Nordeste 0 922.9 1.3 64
2019-06-09 19:00:00 17.1 18 Norte 35 Norte 0 921.8 0 54
2019-06-09 18:00:00 23.2 5 Noroeste 20 Noroeste 0 921.3 -0.9 27
2019-06-09 17:00:00 21.8 3 Oeste 22 Noroeste 0 921.6 -0.9 28
2019-06-09 16:00:00 23.1 7 Sudoeste 28 Sudoeste 0 921.8 -1.1 28
2019-06-09 15:00:00 22.2 7 Oeste 28 Sur 0 922.2 -0.9 31
2019-06-09 14:00:00 21.8 8 Sur 25 Sudoeste 0 922.5 -0.8 36
2019-06-09 13:00:00 20.1 7 Sur 21 Sudoeste 0 922.9 -0.5 45
2019-06-09 12:00:00 18.1 3 Norte 11 Noroeste 0 923.1 -0.3 54
2019-06-09 11:00:00 17 4 Sur 13 Este 0 923.3 0.1 58
2019-06-09 10:00:00 14.5 5 Este 14 Norte 0 923.4 0.5 67
2019-06-09 09:00:00 12.1 6 Nordeste 16 Nordeste 0 923.4 0.5 77
2019-06-09 08:00:00 9.4 5 Nordeste 10 Nordeste 0 923.2 -0.1 93
2019-06-09 07:00:00 8 5 Nordeste 14 Nordeste 0 922.9 -0.5 96
2019-06-09 06:00:00 8.7 6 Nordeste 15 Norte 0 922.9 -0.7 94
2019-06-09 05:00:00 8.2 5 Noroeste 11 Nordeste 0 923.3 -0.8 94
2019-06-09 04:00:00 9 4 Nordeste 19 Nordeste 0 923.4 -1.1 86
2019-06-09 03:00:00 9.6 10 Nordeste 26 Nordeste 0 923.6 -0.7 84
2019-06-09 02:00:00 9.6 8 Nordeste 28 Nordeste 0 924.1 -0.5 83
2019-06-09 01:00:00 10.1 10 Nordeste 31 Nordeste 0 924.5 0.5 80
2019-06-09 00:00:00 11 16 Nordeste 42 Nordeste 0 924.3 1.3 77
2019-06-08 23:00:00 12.1 8 Nordeste 31 Norte 0 924.6 1.9 75
2019-06-08 22:00:00 13.4 12 Norte 30 Nordeste 0 924 1.2 70
2019-06-08 21:00:00 17 14 Nordeste 37 Nordeste 0 923 -0.3 57
2019-06-08 20:00:00 21.3 3 Norte 6 Sudeste 0 922.7 -1.2 32
2019-06-08 19:00:00 22.3 0 Calma 14 Sur 0 922.8 -1.8 23
2019-06-08 18:00:00 22.5 6 Sur 23 Sur 0 923.3 -2 22
2019-06-08 17:00:00 23.3 10 Sur 26 Sudeste 0 923.9 -2.2 21
2019-06-08 16:00:00 22.3 10 Sur 27 Sudoeste 0 924.6 -2 26
2019-06-08 15:00:00 21.4 8 Sudoeste 23 Sudoeste 0 925.3 -1.9 26
2019-06-08 14:00:00 20.4 8 Sudeste 21 Sur 0 926.1 -1.6 29
2019-06-08 13:00:00 17.9 5 Este 21 Este 0 926.6 -1.5 36
2019-06-08 12:00:00 16.1 7 Nordeste 23 Norte 0 927.2 -1 46
2019-06-08 11:00:00 13.8 7 Nordeste 25 Nordeste 0 927.7 -0.5 54
2019-06-08 10:00:00 11 12 Nordeste 28 Este 0 928.1 0.1 68
2019-06-08 09:00:00 8.8 11 Nordeste 28 Nordeste 0 928.2 0.4 78
2019-06-08 08:00:00 6.7 10 Nordeste 22 Nordeste 0 928.2 0.5 85
2019-06-08 07:00:00 5.1 7 Nordeste 19 Nordeste 0 928 0.3 94
2019-06-08 06:00:00 5.4 8 Nordeste 21 Nordeste 0 927.8 0 93
2019-06-08 05:00:00 5.6 8 Nordeste 19 Norte 0 927.7 -0.1 91
2019-06-08 04:00:00 5.3 5 Nordeste 13 Nordeste 0 927.7 -0.1 92
2019-06-08 03:00:00 5.8 4 Norte 14 Norte 0 927.8 0.4 86
2019-06-08 02:00:00 6.4 4 Norte 12 Nordeste 0 927.8 1.1 84
2019-06-08 01:00:00 6.9 4 Nordeste 13 Nordeste 0 927.8 2 81
2019-06-08 00:00:00 7.8 6 Nordeste 15 Norte 0 927.4 2.2 76
2019-06-07 23:00:00 9.2 4 Noroeste 12 Noroeste 0 926.7 2.1 66
2019-06-07 22:00:00 11.3 0 Calma 9 Oeste 0 925.8 1.7 58
2019-06-07 21:00:00 14.3 3 Oeste 16 Noroeste 0 925.2 1.4 47
2019-06-07 20:00:00 16.3 7 Sudoeste 20 Sur 0 924.6 1.1 29
2019-06-07 19:00:00 17.2 5 Sudoeste 27 Sudoeste 0 924.1 0.7 28
2019-06-07 18:00:00 17.2 7 Sudoeste 21 Sudoeste 0 923.8 0.8 30
2019-06-07 17:00:00 17 8 Sudoeste 28 Sur 0 923.5 0.9 28
2019-06-07 16:00:00 16.7 8 Sudoeste 32 Sudoeste 0 923.4 1.2 30
2019-06-07 15:00:00 16.1 6 Sudoeste 28 Sudoeste 0 923 1.6 34
2019-06-07 14:00:00 15.3 9 Oeste 31 Sudoeste 0 922.6 2.1 41
2019-06-07 13:00:00 14.4 9 Sudoeste 33 Sudoeste 0 922.2 2.5 44
2019-06-07 12:00:00 13.3 6 Oeste 34 Sudoeste 0 921.4 2.4 49
2019-06-07 11:00:00 10.8 8 Sudoeste 32 Sudoeste 0 920.5 2.4 59
2019-06-07 10:00:00 10.3 12 Sudoeste 31 Sudoeste 0 919.7 2.3 66
2019-06-07 09:00:00 8.9 12 Sudoeste 31 Sudoeste 0 919 2.7 76
2019-06-07 08:00:00 7.1 14 Sudoeste 30 Sudoeste 0 918.1 2.5 84
2019-06-07 07:00:00 6.3 10 Sudoeste 27 Sur 0 917.4 2.5 93
2019-06-07 06:00:00 6.7 10 Sudoeste 38 Sudoeste 0 916.3 2.1 92
2019-06-07 05:00:00 6.6 11 Sudoeste 39 Oeste 0 915.6 2.1 94
2019-06-07 04:00:00 6.6 10 Sudoeste 42 Sur 0 914.9 1.8 93
2019-06-07 03:00:00 6.9 14 Sudoeste 42 Sudoeste 0 914.2 1.4 92
2019-06-07 02:00:00 7.5 12 Sudoeste 40 Sur 0 913.5 1 85
2019-06-07 01:00:00 8.7 17 Sudoeste 37 Sur 0 913.1 2 85
2019-06-07 00:00:00 8.4 12 Sudoeste 52 Sudoeste 1.6 912.8 1.3 85
2019-06-06 23:00:00 9.5 5 Norte 39 Sur 3.2 912.5 1.3 91
2019-06-06 22:00:00 12.4 13 Sudoeste 36 Sudoeste 0.2 911.1 0.8 81
2019-06-06 21:00:00 12.4 14 Sudoeste 41 Sudoeste 0.6 911.5 0.4 81
2019-06-06 20:00:00 15.4 9 Sudoeste 55 Sudoeste 0 911.2 -0.8 64
2019-06-06 19:00:00 19.3 28 Sudoeste 66 Sudoeste 0 910.3 -3.2 31
2019-06-06 18:00:00 19.7 24 Sudoeste 58 Sudoeste 0 911.1 -3.4 26
2019-06-06 17:00:00 20.9 25 Sudoeste 53 Sur 0 912 -3.5 25
2019-06-06 16:00:00 20.1 19 Sudoeste 46 Sur 0 913.5 -2.9 28
2019-06-06 15:00:00 19 20 Sudoeste 46 Sudoeste 0 914.5 -2.7 30
2019-06-06 14:00:00 18.3 17 Sur 35 Sudoeste 0 915.5 -2.4 33
2019-06-06 13:00:00 17.1 15 Sudoeste 38 Sudoeste 0 916.4 -2.1 35
2019-06-06 12:00:00 15.7 10 Sur 56 Sudeste 0 917.2 -1.8 42
2019-06-06 11:00:00 13.4 11 Sur 27 Sur 0 917.9 -1.4 49
2019-06-06 10:00:00 11.1 6 Sur 11 Sur 0 918.5 -1.1 68
2019-06-06 09:00:00 8.5 5 Sudeste 9 Este 0 919 -0.6 79
2019-06-06 08:00:00 4.7 0 Calma 4 Noroeste 0 919.3 -0.7 98
2019-06-06 07:00:00 2.8 2 Norte 5 Noroeste 0 919.6 -0.6 98
2019-06-06 06:00:00 2.6 0 Calma 4 Noroeste 0 919.6 -0.7 96
2019-06-06 05:00:00 3.6 2 Noroeste 5 Noroeste 0 920 -0.4 95
2019-06-06 04:00:00 4.5 0 Calma 3 Oeste 0 920.2 -0.5 91
2019-06-06 03:00:00 6.4 2 Norte 9 Nordeste 0 920.3 -0.4 85
2019-06-06 02:00:00 7.4 3 Nordeste 12 Este 0 920.4 -0.1 81
2019-06-06 01:00:00 7.7 2 Nordeste 8 Nordeste 0 920.7 0.8 79
2019-06-06 00:00:00 8.4 5 Este 15 Nordeste 0 920.7 1.2 74
2019-06-05 23:00:00 8.9 4 Este 22 Este 0 920.5 1.7 74
2019-06-05 22:00:00 10.5 9 Este 20 Este 0 919.9 1.7 68
2019-06-05 21:00:00 11.9 7 Nordeste 21 Este 0 919.5 1.5 65
2019-06-05 20:00:00 13.6 6 Este 19 Este 0 918.8 0.8 57
2019-06-05 19:00:00 17.7 6 Sudoeste 19 Sudoeste 0 918.2 0.1 28
2019-06-05 18:00:00 17.9 6 Oeste 34 Sudoeste 0 918 -0.1 27
2019-06-05 17:00:00 18.8 6 Oeste 22 Sur 0 918 -0.3 24
2019-06-05 16:00:00 17.9 5 Sudoeste 26 Sudoeste 0 918.1 -0.2 29
2019-06-05 15:00:00 17.5 4 Noroeste 24 Sudoeste 0 918.1 0.1 37
2019-06-05 14:00:00 15.9 5 Noroeste 24 Oeste 0 918.3 0.4 43
2019-06-05 13:00:00 15.8 3 Sudeste 20 Sudoeste 0 918.3 0.5 51
2019-06-05 12:00:00 14.9 5 Oeste 18 Noroeste 0 918 0.7 56
2019-06-05 11:00:00 13.1 5 Sudoeste 15 Sur 0 917.9 1.1 65
2019-06-05 10:00:00 9.8 3 Sudoeste 16 Sudoeste 0.2 917.8 1.3 82
2019-06-05 09:00:00 9.3 0 Calma 11 Nordeste 0.2 917.3 0.9 82
2019-06-05 08:00:00 8.5 6 Nordeste 17 Este 0 916.8 0.7 84
2019-06-05 07:00:00 8.3 5 Nordeste 15 Nordeste 0 916.5 -0.1 90
2019-06-05 06:00:00 8.6 5 Norte 13 Norte 0 916.4 -0.3 94
2019-06-05 05:00:00 8.6 3 Nordeste 13 Este 1 916.1 -0.6 94
2019-06-05 04:00:00 8.6 5 Nordeste 19 Nordeste 0.6 916.6 -0.2 92
2019-06-05 03:00:00 9 5 Nordeste 21 Norte 1 916.7 0.1 91
2019-06-05 02:00:00 9.8 6 Norte 12 Norte 0.8 916.7 0.3 89
2019-06-05 01:00:00 10.8 4 Norte 19 Nordeste 0 916.8 0.8 79
2019-06-05 00:00:00 11.6 8 Este 23 Este 0 916.6 0.7 77
2019-06-04 23:00:00 14.1 0 Calma 3 Nordeste 0 916.4 0.8 81
2019-06-04 22:00:00 14.6 0 Calma 10 Sur 0.4 916 0.2 77
2019-06-04 21:00:00 17.6 2 Sudeste 12 Sudoeste 0 915.9 0.1 51
2019-06-04 20:00:00 18.8 3 Oeste 18 Sur 0 915.6 -0.4 47
2019-06-04 19:00:00 20.5 4 Oeste 26 Sudoeste 0 915.8 -0.4 43
2019-06-04 18:00:00 21.6 9 Sudoeste 40 Sur 0 915.8 -0.7 38
2019-06-04 17:00:00 22.2 12 Sudoeste 44 Sur 0 916 -1.2 36
2019-06-04 16:00:00 22.4 18 Sudoeste 41 Sudoeste 0 916.2 -1.2 33
2019-06-04 15:00:00 21.7 8 Sudoeste 36 Sur 0 916.5 -1.3 37
2019-06-04 14:00:00 22.1 12 Sudoeste 37 Sudoeste 0 917.2 -0.8 40
2019-06-04 13:00:00 20.7 16 Sudoeste 36 Sudoeste 0 917.4 -0.4 43
2019-06-04 12:00:00 18.9 10 Sudoeste 38 Sur 0 917.8 0.1 49
2019-06-04 11:00:00 17.1 15 Sudoeste 38 Sudoeste 0 918 0.5 55
2019-06-04 10:00:00 16 13 Sudoeste 32 Sur 0 917.8 0.6 61
2019-06-04 09:00:00 14.1 10 Sudoeste 36 Sudoeste 0 917.7 0.4 70
2019-06-04 08:00:00 12.8 12 Sudoeste 35 Sudoeste 0 917.5 -0.1 78
2019-06-04 07:00:00 11.6 10 Sudoeste 27 Sudoeste 0 917.2 -0.6 83
2019-06-04 06:00:00 12.7 13 Sudoeste 27 Sudoeste 0 917.3 -0.6 78
2019-06-04 05:00:00 13.9 9 Sudoeste 27 Sudoeste 0 917.6 -0.9 74
2019-06-04 04:00:00 14.7 11 Sudoeste 22 Sudoeste 0 917.8 -1.3 72
2019-06-04 03:00:00 15.4 4 Sudoeste 20 Sur 0 917.9 -1.5 70
2019-06-04 02:00:00 14.5 2 Oeste 8 Sudoeste 0 918.5 -0.8 76
2019-06-04 01:00:00 14.5 0 Calma 3 Sudeste 0 919.1 0 72
2019-06-04 00:00:00 16.1 0 Calma 3 Este 0 919.4 0.3 64
2019-06-03 23:00:00 18.5 0 Calma 6 Noroeste 0 919.3 0.3 54
2019-06-03 22:00:00 21.4 2 Sudoeste 14 Oeste 0 919.1 0 41
2019-06-03 21:00:00 24.4 4 Sudoeste 31 Sur 0 919.1 -0.3 30
2019-06-03 20:00:00 26.4 14 Sudoeste 37 Sudoeste 0 919 -1 25
2019-06-03 19:00:00 28.5 18 Sudoeste 41 Sudoeste 0 919.1 -1.5 21
2019-06-03 18:00:00 28.9 14 Sudoeste 38 Sudoeste 0 919.4 -1.9 23
2019-06-03 17:00:00 29.6 10 Sudoeste 35 Sudoeste 0 920 -1.9 24
2019-06-03 16:00:00 28.6 15 Sudoeste 39 Sudoeste 0 920.6 -2 24
2019-06-03 15:00:00 27.8 10 Sudoeste 30 Sudoeste 0 921.3 -1.7 28
2019-06-03 14:00:00 27.1 9 Sudoeste 31 Sudoeste 0 921.9 -1.1 28
2019-06-03 13:00:00 26 9 Sudoeste 23 Sur 0 922.6 -0.9 28
2019-06-03 12:00:00 23.4 5 Sudoeste 14 Sudoeste 0 923 -0.5 34
2019-06-03 11:00:00 20.7 3 Sudoeste 8 Sur 0 923 -0.4 45
2019-06-03 10:00:00 18.2 2 Norte 10 Sudeste 0 923.5 0.6 52
2019-06-03 09:00:00 15.9 4 Este 9 Sudeste 0 923.5 0.4 59
2019-06-03 08:00:00 11.7 0 Calma 5 Noroeste 0 923.4 0.5 80
2019-06-03 07:00:00 10.6 2 Nordeste 5 Noroeste 0 922.9 -0.2 81
2019-06-03 06:00:00 12 0 Calma 5 Noroeste 0 923.1 -0.2 77
2019-06-03 05:00:00 12.2 0 Calma 5 Noroeste 0 922.9 -0.4 75
2019-06-03 04:00:00 12.6 2 Noroeste 4 Norte 0 923.1 -0.7 71
2019-06-03 03:00:00 13.8 3 Norte 5 Este 0 923.3 -0.3 66
2019-06-03 02:00:00 15.2 2 Este 8 Nordeste 0 923.3 0.1 54
2019-06-03 01:00:00 16.3 3 Este 11 Nordeste 0 923.8 1.2 47
2019-06-03 00:00:00 16.4 0 Calma 5 Noroeste 0 923.6 1 47
2019-06-02 23:00:00 18.7 3 Este 6 Noroeste 0 923.2 0.6 35
2019-06-02 22:00:00 21.2 2 Norte 10 Este 0 922.6 0 27
2019-06-02 21:00:00 24.9 2 Este 20 Sudoeste 0 922.6 0 21
2019-06-02 20:00:00 26.8 6 Sudoeste 23 Sudoeste 0 922.6 -0.2 14
2019-06-02 19:00:00 27.3 3 Oeste 30 Oeste 0 922.6 -0.3 13
2019-06-02 18:00:00 29.1 9 Sudoeste 28 Sudoeste 0 922.6 -0.8 12
2019-06-02 17:00:00 29.8 5 Sudoeste 44 Sur 0 922.8 -1.2 14
2019-06-02 16:00:00 29.9 12 Sudoeste 41 Oeste 0 922.9 -1.5 15
2019-06-02 15:00:00 30.7 8 Sudoeste 37 Sur 0 923.4 -1.4 13
2019-06-02 14:00:00 29.6 12 Sudoeste 32 Sudoeste 0 924 -0.8 15
2019-06-02 13:00:00 28.4 11 Sudoeste 34 Sur 0 924.4 -0.6 21
2019-06-02 12:00:00 26.9 11 Sudoeste 27 Sudoeste 0 924.8 0 28
2019-06-02 11:00:00 24 5 Sur 12 Sudoeste 0 924.8 0.1 35
2019-06-02 10:00:00 21.9 3 Sudeste 17 Sudeste 0 925 0.7 39
2019-06-02 09:00:00 19.2 4 Este 11 Sudeste 0 924.8 0.8 51
2019-06-02 08:00:00 15 0 Calma 3 Sudeste 0 924.7 0.7 70
2019-06-02 07:00:00 10.8 0 Calma 6 Nordeste 0 924.3 0 81
2019-06-02 06:00:00 11.2 0 Calma 7 Nordeste 0 924 -0.4 79
2019-06-02 05:00:00 11.8 2 Nordeste 5 Nordeste 0 924 -0.3 78
2019-06-02 04:00:00 12.9 2 Nordeste 5 Nordeste 0 924.3 -0.3 75
2019-06-02 03:00:00 14.2 2 Noroeste 9 Nordeste 0 924.4 -0.5 68
2019-06-02 02:00:00 15.1 3 Norte 8 Norte 0 924.3 -0.3 66
2019-06-02 01:00:00 17.4 2 Noroeste 12 Norte 0 924.6 0.9 55
2019-06-02 00:00:00 20.2 4 Noroeste 21 Norte 0 924.9 1.3 44
2019-06-01 23:00:00 21.3 9 Nordeste 20 Norte 0 924.6 1 37
2019-06-01 22:00:00 21.5 0 Calma 5 Noroeste 0 923.7 0.1 47
2019-06-01 21:00:00 25.4 2 Norte 8 Sudoeste 0 923.6 -0.3 26
2019-06-01 20:00:00 29.5 3 Norte 18 Sudoeste 0 923.6 -0.8 18
2019-06-01 19:00:00 31.4 4 Nordeste 15 Noroeste 0 923.6 -1.5 15
2019-06-01 18:00:00 32.1 5 Sudoeste 24 Sudoeste 0 923.9 -1.7 13
2019-06-01 17:00:00 32.5 7 Sudoeste 20 Sudoeste 0 924.4 -1.7 13
2019-06-01 16:00:00 32 6 Sudoeste 18 Sudoeste 0 925.1 -1.7 14
2019-06-01 15:00:00 31 5 Noroeste 20 Sur 0 925.6 -1.5 13
2019-06-01 14:00:00 30.5 5 Sudoeste 18 Sudoeste 0 926.1 -1.2 17
2019-06-01 13:00:00 29.4 4 Sudoeste -- -- 0 926.8 -0.5 18
2019-06-01 12:00:00 27.4 4 Este 12 Sudeste 0 927.1 -0.2 22
2019-06-01 11:00:00 24.6 5 Nordeste 13 Nordeste 0 927.3 0 29
2019-06-01 10:00:00 22.5 4 Este 12 Sudeste 0 927.3 0.3 31
2019-06-01 09:00:00 19.1 4 Nordeste 9 Nordeste 0 927.3 0.6 50
2019-06-01 08:00:00 12.5 0 Calma 4 Oeste 0 927.3 0.5 74
2019-06-01 07:00:00 9.7 0 Calma 4 Sudeste 0 927 0.2 79
2019-06-01 06:00:00 11.3 3 Nordeste 11 Nordeste 0 926.7 -0.4 70
2019-06-01 05:00:00 12.5 3 Norte 12 Nordeste 0 926.8 -0.4 63
2019-06-01 04:00:00 13.7 4 Nordeste 14 Nordeste 0 926.8 -0.8 58
2019-06-01 03:00:00 13.5 3 Nordeste 15 Nordeste 0 927.1 -0.6 59
2019-06-01 02:00:00 14.6 6 Nordeste 14 Nordeste 0 927.2 -0.4 53
2019-06-01 01:00:00 15.6 6 Nordeste 16 Nordeste 0 927.6 0.6 49
2019-06-01 00:00:00 15.6 5 Nordeste 12 Nordeste 0 927.7 1.1 48
2019-05-31 23:00:00 17.8 5 Nordeste 14 Norte 0 927.6 1 42
2019-05-31 22:00:00 19.9 3 Nordeste 7 Norte 0 927 0.3 41
2019-05-31 21:00:00 25.2 2 Este 13 Este 0 926.6 -0.4 23
2019-05-31 20:00:00 28.5 6 Este 14 Sudeste 0 926.6 -0.9 16
2019-05-31 19:00:00 30.3 5 Nordeste 15 Nordeste 0 926.7 -1.3 13
2019-05-31 18:00:00 30.1 8 Nordeste 20 Sudeste 0 927 -1.6 12
2019-05-31 17:00:00 30.1 3 Sur 16 Nordeste 0 927.5 -1.5 12
2019-05-31 16:00:00 28.6 5 Noroeste 21 Nordeste 0 928 -1.5 16
2019-05-31 15:00:00 28.7 7 Norte 21 Nordeste 0 928.6 -1.1 17
2019-05-31 14:00:00 27.7 5 Sudeste 23 Noroeste 0 929 -1 20
2019-05-31 13:00:00 26.4 4 Este 14 Sudeste 0 929.5 -0.6 24
2019-05-31 12:00:00 24.6 3 Este 14 Sudeste 0 929.7 -0.4 32
2019-05-31 11:00:00 22.8 3 Sudeste 12 Nordeste 0 930 -0.1 36
2019-05-31 10:00:00 20.4 3 Este 12 Nordeste 0 930.1 0.1 44
2019-05-31 09:00:00 16.7 4 Nordeste 8 Nordeste 0 930.1 0.2 59
2019-05-31 08:00:00 10.7 2 Noroeste 5 Noroeste 0 930.1 0 91
2019-05-31 07:00:00 7.8 0 Calma 5 Sudoeste 0 930 -0.4 95
2019-05-31 06:00:00 8.2 0 Calma 6 Norte 0 929.9 -0.8 93
2019-05-31 05:00:00 9.3 3 Norte 8 Norte 0 930.1 -0.7 91
2019-05-31 04:00:00 10.5 2 Sudeste 8 Nordeste 0 930.4 -0.7 81
2019-05-31 03:00:00 12.5 3 Norte 13 Nordeste 0 930.7 -0.5 75
2019-05-31 02:00:00 13.6 7 Norte 12 Nordeste 0 930.8 -0.1 69
2019-05-31 01:00:00 14.5 4 Norte 12 Nordeste 0 931.1 1.1 68
2019-05-31 00:00:00 16.1 4 Nordeste 13 Nordeste 0 931.2 1.6 63
2019-05-30 23:00:00 18.4 8 Nordeste 19 Nordeste 0 930.9 1.7 54
2019-05-30 22:00:00 20.6 8 Nordeste 27 Nordeste 0 930 0.8 45
2019-05-30 21:00:00 23.8 12 Nordeste 29 Nordeste 0 929.6 0.1 33
2019-05-30 20:00:00 25.7 11 Nordeste 28 Nordeste 0 929.2 -0.7 27
2019-05-30 19:00:00 27.4 9 Este 28 Nordeste 0 929.2 -1.2 24
2019-05-30 18:00:00 27.4 9 Nordeste 26 Nordeste 0 929.5 -1.3 22
2019-05-30 17:00:00 27.6 7 Este 24 Nordeste 0 929.9 -1.2 22
2019-05-30 16:00:00 26.9 5 Norte 18 Nordeste 0 930.4 -1 24
2019-05-30 15:00:00 26.6 6 Este 23 Nordeste 0 930.8 -0.9 24
2019-05-30 14:00:00 25 5 Nordeste 18 Norte 0 931.1 -0.9 23
2019-05-30 13:00:00 23.2 5 Nordeste 20 Nordeste 0 931.4 -0.8 27
2019-05-30 12:00:00 21.4 5 Norte 16 Norte 0 931.7 -0.4 36
2019-05-30 11:00:00 19.4 4 Nordeste 13 Nordeste 0 932 0.1 44
2019-05-30 10:00:00 16.8 4 Nordeste 12 Norte 0 932.2 0.4 55
2019-05-30 09:00:00 13.8 5 Nordeste 11 Nordeste 0 932.1 0.6 69
2019-05-30 08:00:00 8.4 3 Norte 5 Norte 0 931.9 0.4 94
2019-05-30 07:00:00 6.4 0 Calma 11 Norte 0 931.8 0.2 91
2019-05-30 06:00:00 7.8 5 Norte 12 Norte 0 931.5 -0.5 94
2019-05-30 05:00:00 7.6 6 Norte 11 Nordeste 0 931.5 -0.4 93
2019-05-30 04:00:00 7.6 6 Norte 13 Nordeste 0 931.6 -0.6 92
2019-05-30 03:00:00 7.2 3 Noroeste 5 Norte 0 932 0.3 93
2019-05-30 02:00:00 8.5 0 Calma 7 Noroeste 0 931.9 0.4 81
2019-05-30 01:00:00 9.6 4 Norte 12 Nordeste 0 932.2 1.4 77
2019-05-30 00:00:00 12.4 5 Este 17 Nordeste 0 931.7 1.3 65
2019-05-29 23:00:00 14 9 Este 24 Nordeste 0 931.5 1.8 56
2019-05-29 22:00:00 15.5 7 Este 25 Este 0 930.8 1.2 53
2019-05-29 21:00:00 17.8 12 Este 27 Este 0 930.4 0.8 42
2019-05-29 20:00:00 19.9 10 Nordeste 33 Este 0 929.7 -0.1 38
2019-05-29 19:00:00 21.6 10 Este 34 Nordeste 0 929.6 -0.1 36
2019-05-29 18:00:00 22 10 Este 34 Este 0 929.6 -0.4 35
2019-05-29 17:00:00 21.8 12 Nordeste 29 Este 0 929.8 -0.6 34
2019-05-29 16:00:00 21.4 10 Este 31 Nordeste 0 929.7 -1 36
2019-05-29 15:00:00 20.4 7 Nordeste 27 Norte 0 930 -0.9 38
2019-05-29 14:00:00 19.5 8 Nordeste 21 Nordeste 0 930.4 -0.5 43
2019-05-29 13:00:00 17.5 5 Sudeste 20 Nordeste 0 930.7 -0.3 42
2019-05-29 12:00:00 15.8 7 Norte 19 Oeste 0 930.9 0.4 48
2019-05-29 11:00:00 14.3 6 Sudeste 15 Este 0 930.9 0.7 51
2019-05-29 10:00:00 12.7 5 Este 13 Norte 0 931 1.3 59
2019-05-29 09:00:00 10.2 3 Nordeste 7 Noroeste 0 930.5 0.9 69
2019-05-29 08:00:00 5.7 2 Noroeste 4 Noroeste 0 930.2 0.7 96
2019-05-29 07:00:00 2.9 0 Calma 5 Norte 0 929.7 0.2 96
2019-05-29 06:00:00 4 3 Norte 8 Nordeste 0 929.6 0.3 96
2019-05-29 05:00:00 4.1 3 Norte 17 Nordeste 0 929.5 0.2 96
2019-05-29 04:00:00 4 4 Noroeste 7 Norte 0 929.5 0.4 95
2019-05-29 03:00:00 4.2 2 Norte 6 Noroeste 0 929.3 0.3 88
2019-05-29 02:00:00 5.1 2 Noroeste 6 Noroeste 0 929.3 0.8 85
2019-05-29 01:00:00 6 0 Calma 6 Este 0 929.1 1.5 79
2019-05-29 00:00:00 8 3 Nordeste 14 Este 0 929 1.9 73
2019-05-28 23:00:00 9.2 4 Este 17 Sudeste 0 928.5 2.2 69
2019-05-28 22:00:00 11.2 7 Sudeste 22 Sudeste 0 927.6 1.7 59
2019-05-28 21:00:00 13.6 9 Este 30 Nordeste 0 927.1 1.7 47
2019-05-28 20:00:00 15.5 12 Este 36 Nordeste 0 926.3 1.4 43
2019-05-28 19:00:00 17.9 11 Este 32 Sudeste 0 925.9 1 41
2019-05-28 18:00:00 19.2 11 Nordeste 37 Nordeste 0 925.4 0.4 36
2019-05-28 17:00:00 20 9 Este 26 Nordeste 0 924.9 -0.2 33
2019-05-28 16:00:00 20.3 5 Norte 21 Este 0 924.9 -0.7 29
2019-05-28 15:00:00 19.4 7 Nordeste 18 Noroeste 0 925 -0.5 30
2019-05-28 14:00:00 18.1 6 Sudeste 18 Sudeste 0 925.1 -0.5 37
2019-05-28 13:00:00 16.6 7 Nordeste 16 Este 0 925.6 0.1 41
2019-05-28 12:00:00 14.8 6 Nordeste 22 Nordeste 0 925.5 0.1 43
2019-05-28 11:00:00 13.1 9 Nordeste 22 Nordeste 0 925.6 0.7 51
2019-05-28 10:00:00 11.7 9 Nordeste 24 Nordeste 0 925.5 1.1 55
2019-05-28 09:00:00 9.7 8 Nordeste 21 Nordeste 0 925.4 1.6 65
2019-05-28 08:00:00 6.9 4 Norte 12 Nordeste 0 924.9 1.2 82
2019-05-28 07:00:00 4.6 4 Norte 8 Nordeste 0 924.4 0.6 95
2019-05-28 06:00:00 4.8 2 Norte 5 Nordeste 0 923.8 0.2 91
2019-05-28 05:00:00 5.3 2 Noroeste 5 Nordeste 0 923.7 -0.1 86
2019-05-28 04:00:00 6 2 Norte 8 Este 0 923.8 0 85
2019-05-28 03:00:00 6.6 3 Nordeste 9 Este 0 923.6 0 84
2019-05-28 02:00:00 7.2 3 Nordeste 11 Este 0 923.8 0.4 83
2019-05-28 01:00:00 8.3 4 Nordeste 18 Nordeste 0 923.8 1.2 82
2019-05-28 00:00:00 9.4 5 Nordeste 20 Este 0 923.6 1.6 81
2019-05-27 23:00:00 10.7 6 Este 25 Nordeste 0 923.4 1.8 77
2019-05-27 22:00:00 12.6 9 Nordeste 28 Este 0 922.6 1.4 70
2019-05-27 21:00:00 15.3 10 Este 32 Este 0 922 0.9 61
2019-05-27 20:00:00 17.6 10 Este 31 Nordeste 0 921.6 0.5 57
2019-05-27 19:00:00 19.7 11 Nordeste 31 Este 0 921.2 0.1 51
2019-05-27 18:00:00 21.1 10 Este 30 Sudeste 0 921.1 -0.8 46
2019-05-27 17:00:00 22.8 11 Este 31 Este 0 921.1 -1.2 41
2019-05-27 16:00:00 24 7 Sur 19 Sudoeste 0 921.1 -1.6 35
2019-05-27 15:00:00 22.8 7 Sur 17 Sudeste 0 921.9 -1.2 36
2019-05-27 14:00:00 22.2 5 Sudeste 26 Sudoeste 0 922.3 -1.2 38
2019-05-27 13:00:00 20.5 5 Sudoeste 15 Sudoeste 0 922.7 -0.7 43
2019-05-27 12:00:00 18.4 5 Sudoeste 13 Sudoeste 0 923.1 -0.7 50
2019-05-27 11:00:00 16.1 4 Norte 10 Sudoeste 0 923.5 0 58
2019-05-27 10:00:00 13.8 4 Nordeste 10 Sudeste 0 923.4 -0.1 64
2019-05-27 09:00:00 11 3 Sudeste 8 Sudeste 0 923.8 0.5 75
2019-05-27 08:00:00 7.6 0 Calma 6 Noroeste 0 923.5 0 97
2019-05-27 07:00:00 5.7 2 Norte 8 Norte 0 923.5 -0.5 95
2019-05-27 06:00:00 6.3 2 Norte 5 Norte 0 923.3 -1 93
2019-05-27 05:00:00 7.4 2 Nordeste 10 Nordeste 0 923.5 -1 91
2019-05-27 04:00:00 8.3 2 Norte 11 Este 0 924 -1.1 86
2019-05-27 03:00:00 8.1 2 Nordeste 10 Sudeste 0 924.3 -1 85
2019-05-27 02:00:00 8.8 3 Este 10 Norte 0 924.5 -0.7 84
2019-05-27 01:00:00 9.4 3 Sudeste 12 Nordeste 0 925.1 0.3 82
2019-05-27 00:00:00 10.6 4 Este 15 Sudeste 0 925.3 1 77
2019-05-26 23:00:00 12.3 6 Este 17 Este 0 925.2 1.1 70
2019-05-26 22:00:00 14.7 6 Nordeste 26 Este 0 924.8 0.5 61
2019-05-26 21:00:00 18 9 Este 28 Este 0 924.3 -0.2 50
2019-05-26 20:00:00 20.7 11 Este 28 Sudeste 0 924.1 -0.7 44
2019-05-26 19:00:00 23.3 10 Este 26 Este 0 924.3 -1 38
2019-05-26 18:00:00 24 6 Este 24 Sudeste 0 924.5 -1.5 37
2019-05-26 17:00:00 23.7 6 Nordeste 18 Nordeste 0 924.8 -1.7 36
2019-05-26 16:00:00 23.2 8 Sur 19 Sudoeste 0 925.3 -1.7 34
2019-05-26 15:00:00 21.7 7 Noroeste 23 Noroeste 0 926 -1.3 40
2019-05-26 14:00:00 19.7 6 Noroeste 18 Noroeste 0 926.5 -1 45
2019-05-26 13:00:00 18.3 8 Norte 20 Noroeste 0 927 -0.9 48
2019-05-26 12:00:00 16.4 6 Noroeste 16 Este 0 927.3 -0.7 53
2019-05-26 11:00:00 15 5 Norte 20 Norte 0 927.5 -0.6 58
2019-05-26 10:00:00 13.4 5 Nordeste 13 Nordeste 0 927.9 0.3 66
2019-05-26 09:00:00 10.7 4 Norte 10 Noroeste 0 928 0.2 77
2019-05-26 08:00:00 6.4 3 Norte 6 Oeste 0 928.1 0.2 98
2019-05-26 07:00:00 4 2 Noroeste 13 Norte 0 927.6 -0.4 97
2019-05-26 06:00:00 3.9 0 Calma 6 Norte 0 927.8 -0.4 96
2019-05-26 05:00:00 4.3 0 Calma 4 Norte 0 927.9 -0.6 94
2019-05-26 04:00:00 5 0 Calma 8 Norte 0 928 -0.6 88
2019-05-26 03:00:00 5.9 3 Norte 7 Nordeste 0 928.2 -0.4 84
2019-05-26 02:00:00 6.4 2 Nordeste 8 Norte 0 928.5 0 81
2019-05-26 01:00:00 7.7 3 Nordeste 13 Sudoeste 0 928.6 0.9 79
2019-05-26 00:00:00 8.7 4 Nordeste 16 Nordeste 0 928.6 1.3 74
2019-05-25 23:00:00 10.2 5 Nordeste 18 Este 0 928.5 1.2 64
2019-05-25 22:00:00 11.6 6 Este 32 Este 0 927.7 0.6 59
2019-05-25 21:00:00 13.8 10 Este 30 Este 0 927.3 0.3 53
2019-05-25 20:00:00 15.7 9 Este 29 Este 0 927.3 0.2 46
2019-05-25 19:00:00 17.8 11 Este 29 Este 0 927.1 0 41
2019-05-25 18:00:00 18 13 Nordeste 33 Sudeste 0 927 -0.3 40
2019-05-25 17:00:00 18.5 10 Nordeste 31 Nordeste 0 927.1 -0.5 40
2019-05-25 16:00:00 18.5 11 Este 32 Nordeste 0 927.1 -0.6 39
2019-05-25 15:00:00 18.3 11 Nordeste 40 Este 0 927.3 -0.8 41
2019-05-25 14:00:00 18.2 10 Este 31 Nordeste 0 927.6 -0.4 41
2019-05-25 13:00:00 17.6 9 Este 22 Este 0 927.7 -0.3 43
2019-05-25 12:00:00 16 9 Nordeste 26 Nordeste 0 928.1 0.2 43
2019-05-25 11:00:00 14.3 10 Nordeste 26 Nordeste 0 928 0.5 46
2019-05-25 10:00:00 12.6 13 Nordeste 27 Nordeste 0 928 1 54
2019-05-25 09:00:00 10.8 6 Nordeste 16 Nordeste 0 927.9 1.2 70
2019-05-25 08:00:00 6.2 0 Calma 5 Norte 0 927.5 0.8 98
2019-05-25 07:00:00 3.7 4 Sur 9 Norte 0 927 0 98
2019-05-25 06:00:00 3.8 3 Norte 13 Noroeste 0 926.7 -0.5 97
2019-05-25 05:00:00 4 0 Calma 15 Nordeste 0 926.7 -0.6 96
2019-05-25 04:00:00 4.7 0 Calma 4 Sudoeste 0 927 -0.1 94
2019-05-25 03:00:00 5.8 0 Calma 6 Sudoeste 0 927.2 0.1 90
2019-05-25 02:00:00 7.5 4 Oeste 14 Este 0 927.3 0.4 83
2019-05-25 01:00:00 7.4 4 Nordeste 12 Este 0 927.1 1.3 82
2019-05-25 00:00:00 8.3 3 Nordeste 18 Nordeste 0 927.1 1.9 78
2019-05-24 23:00:00 9.7 4 Nordeste 36 Nordeste 0 926.9 2.1 71
2019-05-24 22:00:00 10.9 14 Nordeste 36 Nordeste 0 925.8 1.3 66
2019-05-24 21:00:00 12.9 14 Nordeste 35 Nordeste 0 925.2 0.8 56
2019-05-24 20:00:00 14.6 16 Nordeste 44 Nordeste 0 924.8 0.5 47
2019-05-24 19:00:00 16.4 15 Nordeste 38 Nordeste 0 924.5 0.1 42
2019-05-24 18:00:00 17 17 Nordeste 42 Nordeste 0 924.4 0 42
2019-05-24 17:00:00 17.3 16 Nordeste 44 Nordeste 0 924.3 -0.2 41
2019-05-24 16:00:00 17.8 17 Nordeste 42 Este 0 924.4 -0.3 39
2019-05-24 15:00:00 17.7 11 Nordeste 30 Nordeste 0 924.4 -0.3 38
2019-05-24 14:00:00 17.1 13 Nordeste 28 Norte 0 924.5 -0.5 40
2019-05-24 13:00:00 16.3 11 Norte 29 Nordeste 0 924.7 -0.6 41
2019-05-24 12:00:00 16.1 13 Nordeste 29 Norte 0 924.7 -0.2 42
2019-05-24 11:00:00 13.9 13 Norte 26 Nordeste 0 925 0.5 49
2019-05-24 10:00:00 11.9 9 Nordeste 20 Nordeste 0 925.3 1.5 56
2019-05-24 09:00:00 10.6 9 Nordeste 28 Nordeste 0 924.9 1.3 61
2019-05-24 08:00:00 9.3 8 Nordeste 17 Nordeste 0 924.5 0.9 70
2019-05-24 07:00:00 9 6 Nordeste 15 Nordeste 0 923.8 0.2 76
2019-05-24 06:00:00 8.8 6 Nordeste 12 Nordeste 0 923.6 0 82
2019-05-24 05:00:00 9.7 3 Norte 14 Norte 0 923.6 -0.7 85
2019-05-24 04:00:00 10.1 5 Nordeste 13 Este 0 923.6 -0.8 83
2019-05-24 03:00:00 10.3 3 Nordeste 22 Nordeste 0 923.6 -0.8 83
2019-05-24 02:00:00 10.7 8 Nordeste 21 Nordeste 0 924.3 0.1 82
2019-05-24 01:00:00 10.6 9 Nordeste 25 Nordeste 0 924.4 1.1 82
2019-05-24 00:00:00 11.6 12 Nordeste 27 Norte 0 924.4 2 78
2019-05-23 23:00:00 11.8 12 Nordeste 36 Nordeste 0 924.2 2.3 79
2019-05-23 22:00:00 12.8 17 Nordeste 42 Nordeste 0 923.3 1.8 73
2019-05-23 21:00:00 14.2 19 Nordeste 44 Nordeste 0 922.4 1.1 68
2019-05-23 20:00:00 17.2 15 Nordeste 37 Nordeste 0 921.9 0.4 61
2019-05-23 19:00:00 20.3 15 Nordeste 34 Nordeste 0 921.5 -0.6 50
2019-05-23 18:00:00 23.9 2 Noroeste 20 Norte 0 921.3 -1.5 30
2019-05-23 17:00:00 24.6 4 Noroeste 18 Sudoeste 0 921.5 -1.8 32
2019-05-23 16:00:00 24.4 4 Noroeste 27 Sudoeste 0 922.1 -1.7 38
2019-05-23 15:00:00 22.8 6 Noroeste 15 Noroeste 0 922.8 -1.3 38
2019-05-23 14:00:00 20.5 3 Oeste 10 Noroeste 0 923.3 -0.4 45
2019-05-23 13:00:00 19.8 3 Norte 9 Sudoeste 0 923.8 0.1 49
2019-05-23 12:00:00 18.8 4 Noroeste 17 Nordeste 0 924.1 0.5 50
2019-05-23 11:00:00 18.3 5 Este 12 Sudeste 0 923.7 0.4 49
2019-05-23 10:00:00 16.4 6 Este 14 Sudeste 0 923.7 0.4 58
2019-05-23 09:00:00 13.6 4 Este 12 Este 0 923.6 0.4 66
2019-05-23 08:00:00 10.5 3 Nordeste 11 Nordeste 0 923.3 -0.1 75
2019-05-23 07:00:00 9.4 5 Nordeste 16 Nordeste 0 923.3 0 75
2019-05-23 06:00:00 9.4 6 Nordeste 14 Nordeste 0 923.2 -0.3 76
2019-05-23 05:00:00 8.8 0 Calma 5 Norte 0 923.4 -0.3 78
2019-05-23 04:00:00 10.3 2 Norte 8 Norte 0 923.3 -0.4 75
2019-05-23 03:00:00 11.5 3 Este 13 Nordeste 0 923.5 -0.3 72
2019-05-23 02:00:00 13.4 6 Nordeste 18 Nordeste 0 923.7 0.4 67
2019-05-23 01:00:00 14.3 10 Nordeste 25 Nordeste 0 923.7 0.9 65
2019-05-23 00:00:00 14.7 8 Nordeste 17 Nordeste 0 923.8 1.3 62
2019-05-22 23:00:00 13.6 3 Norte 12 Nordeste 0 923.3 1 58
2019-05-22 22:00:00 16.6 0 Calma 4 Norte 0 922.8 0.5 48
2019-05-22 21:00:00 20.5 0 Calma 10 Sur 0 922.5 0 31
2019-05-22 20:00:00 23.5 4 Sudoeste 15 Sudoeste 0 922.3 -0.5 23
2019-05-22 19:00:00 24.8 3 Sudoeste 13 Noroeste 0 922.3 -0.8 22
2019-05-22 18:00:00 25 6 Oeste 15 Norte 0 922.5 -1 22
2019-05-22 17:00:00 25.4 4 Oeste 19 Sudoeste 0 922.8 -1.3 20
2019-05-22 16:00:00 24.7 4 Noroeste 21 Sudoeste 0 923.1 -1.3 21
2019-05-22 15:00:00 23.9 5 Oeste 22 Sudoeste 0 923.5 -1.1 23
2019-05-22 14:00:00 22.7 5 Oeste 19 Sur 0 924.1 -0.7 24
2019-05-22 13:00:00 21.5 3 Oeste 13 Sudeste 0 924.4 -0.3 24
2019-05-22 12:00:00 20.2 4 Nordeste 12 Sudeste 0 924.6 -0.1 24
2019-05-22 11:00:00 17.5 5 Este 16 Nordeste 0 924.8 0.4 30
2019-05-22 10:00:00 14.8 5 Este 19 Nordeste 0 924.7 0.4 40
2019-05-22 09:00:00 11.9 6 Nordeste 14 Nordeste 0 924.7 0.4 48
2019-05-22 08:00:00 8.7 4 Norte 13 Norte 0 924.4 0.1 62
2019-05-22 07:00:00 6.4 6 Norte 20 Norte 0 924.3 -0.2 74
2019-05-22 06:00:00 6.9 6 Norte 16 Nordeste 0 924.3 0 75
2019-05-22 05:00:00 7.2 9 Norte 19 Nordeste 0 924.3 0.1 76
2019-05-22 04:00:00 6.8 7 Norte 13 Norte 0 924.5 0.3 83
2019-05-22 03:00:00 7.9 5 Nordeste 18 Nordeste 0 924.3 0.2 82
2019-05-22 02:00:00 9.2 8 Nordeste 21 Nordeste 0 924.2 0.2 79
2019-05-22 01:00:00 9.8 7 Nordeste 21 Nordeste 0 924.2 1.2 79
2019-05-22 00:00:00 10.5 7 Nordeste 20 Nordeste 0 924.1 1.7 76